createdAt,value
2023-04-09T00:00:44.396Z,91.40
2023-04-09T00:03:11.537Z,91.70
2023-04-09T00:05:42.395Z,91.50
2023-04-09T00:08:09.364Z,91.30
2023-04-09T00:10:36.337Z,91.00
2023-04-09T00:13:03.372Z,90.80
2023-04-09T00:15:31.874Z,90.80
2023-04-09T00:17:59.656Z,90.80
2023-04-09T00:20:26.871Z,90.80
2023-04-09T00:22:54.223Z,90.70
2023-04-09T00:25:21.256Z,90.70
2023-04-09T00:27:48.234Z,90.60
2023-04-09T00:30:16.026Z,90.50
2023-04-09T00:32:43.703Z,90.50
2023-04-09T00:35:11.150Z,90.40
2023-04-09T00:37:38.180Z,90.30
2023-04-09T00:40:06.230Z,90.20
2023-04-09T00:42:34.720Z,89.70
2023-04-09T00:45:02.081Z,89.60
2023-04-09T00:47:30.655Z,89.70
2023-04-09T00:49:58.168Z,89.60
2023-04-09T00:52:25.819Z,89.90
2023-04-09T00:54:53.667Z,90.00
2023-04-09T00:57:20.719Z,90.00
2023-04-09T00:59:47.698Z,90.10
2023-04-09T01:02:14.873Z,90.30
2023-04-09T01:04:43.109Z,90.10
2023-04-09T01:07:25.345Z,90.00
2023-04-09T01:10:09.845Z,90.20
2023-04-09T01:13:09.110Z,90.40
2023-04-09T01:15:44.274Z,90.70
2023-04-09T01:18:31.055Z,90.90
2023-04-09T01:21:05.118Z,90.90
2023-04-09T01:23:54.973Z,90.90
2023-04-09T01:26:41.349Z,90.40
2023-04-09T01:29:09.202Z,90.20
2023-04-09T01:31:38.473Z,90.30
2023-04-09T01:34:08.913Z,90.40
2023-04-09T01:36:38.005Z,90.50
2023-04-09T01:39:06.302Z,90.70
2023-04-09T01:41:35.580Z,90.50
2023-04-09T01:44:05.059Z,90.60
2023-04-09T01:46:33.477Z,90.60
2023-04-09T01:49:01.478Z,90.60
2023-04-09T01:51:29.816Z,90.70
2023-04-09T01:53:58.180Z,90.50
2023-04-09T01:56:25.183Z,90.40
2023-04-09T01:58:52.799Z,90.60
2023-04-09T02:01:36.142Z,90.70
2023-04-09T02:04:07.781Z,90.50
2023-04-09T02:06:52.994Z,90.60
2023-04-09T02:09:21.651Z,90.60
2023-04-09T02:11:58.534Z,90.50
2023-04-09T02:14:27.275Z,90.70
2023-04-09T02:16:54.441Z,90.70
2023-04-09T02:19:21.517Z,90.70
2023-04-09T02:21:48.573Z,91.10
2023-04-09T02:24:15.584Z,91.30
2023-04-09T02:26:42.565Z,91.30
2023-04-09T02:29:09.618Z,91.40
2023-04-09T02:31:36.755Z,91.80
2023-04-09T02:34:03.790Z,91.80
2023-04-09T02:36:31.192Z,91.80
2023-04-09T02:38:58.253Z,91.80
2023-04-09T02:41:26.018Z,92.00
2023-04-09T02:43:53.062Z,92.10
2023-04-09T02:46:20.172Z,92.40
2023-04-09T02:48:48.099Z,92.40
2023-04-09T02:51:15.275Z,92.40
2023-04-09T02:53:42.268Z,92.40
2023-04-09T02:56:09.294Z,92.60
2023-04-09T02:58:36.320Z,92.50
2023-04-09T03:01:03.406Z,92.60
2023-04-09T03:03:31.193Z,92.70
2023-04-09T03:05:58.532Z,92.90
2023-04-09T03:08:25.709Z,93.00
2023-04-09T03:10:52.823Z,93.00
2023-04-09T03:13:19.798Z,93.10
2023-04-09T03:15:51.498Z,93.10
2023-04-09T03:18:18.576Z,93.00
2023-04-09T03:20:45.720Z,93.00
2023-04-09T03:23:14.568Z,93.10
2023-04-09T03:25:47.114Z,93.20
2023-04-09T03:28:16.657Z,93.20
2023-04-09T03:30:47.519Z,93.40
2023-04-09T03:33:15.471Z,93.40
2023-04-09T03:35:50.974Z,93.30
2023-04-09T03:38:24.279Z,93.30
2023-04-09T03:40:51.707Z,93.40
2023-04-09T03:43:18.711Z,93.30
2023-04-09T03:45:50.682Z,93.40
2023-04-09T03:48:26.357Z,93.40
2023-04-09T03:50:53.978Z,93.40
2023-04-09T03:53:29.521Z,93.40
2023-04-09T03:56:03.088Z,93.50
2023-04-09T03:58:31.238Z,93.40
2023-04-09T04:00:59.192Z,93.50
2023-04-09T04:03:40.564Z,93.40
2023-04-09T04:06:27.961Z,93.40
2023-04-09T04:09:03.620Z,93.20
2023-04-09T04:11:43.564Z,93.10
2023-04-09T04:14:11.041Z,93.10
2023-04-09T04:16:42.972Z,93.10
2023-04-09T04:19:12.063Z,92.90
2023-04-09T04:21:44.789Z,92.80
2023-04-09T04:24:11.810Z,92.90
2023-04-09T04:26:41.424Z,92.90
2023-04-09T04:29:09.808Z,93.20
2023-04-09T04:31:55.878Z,93.30
2023-04-09T04:34:25.693Z,93.50
2023-04-09T04:37:18.632Z,93.10
2023-04-09T04:39:45.741Z,93.20
2023-04-09T04:42:15.789Z,93.60
2023-04-09T04:44:44.018Z,93.70
2023-04-09T04:47:29.509Z,93.70
2023-04-09T04:49:58.650Z,93.70
2023-04-09T04:52:26.158Z,94.00
2023-04-09T04:54:54.324Z,94.20
2023-04-09T04:57:23.662Z,94.40
2023-04-09T04:59:50.940Z,94.30
2023-04-09T05:02:18.884Z,94.20
2023-04-09T05:05:06.779Z,94.40
2023-04-09T05:07:39.445Z,94.40
2023-04-09T05:10:07.380Z,94.40
2023-04-09T05:12:38.491Z,94.40
2023-04-09T05:15:07.045Z,94.40
2023-04-09T05:17:34.067Z,94.20
2023-04-09T05:20:01.311Z,94.20
2023-04-09T05:22:44.233Z,94.00
2023-04-09T05:25:11.403Z,93.70
2023-04-09T05:27:40.964Z,93.70
2023-04-09T05:30:10.929Z,93.40
2023-04-09T05:32:39.290Z,93.20
2023-04-09T05:35:07.031Z,93.10
2023-04-09T05:37:39.318Z,93.00
2023-04-09T05:40:07.402Z,93.00
2023-04-09T05:42:34.702Z,92.90
2023-04-09T05:45:06.187Z,92.80
2023-04-09T05:47:33.571Z,92.60
2023-04-09T05:50:12.286Z,92.70
2023-04-09T05:52:39.360Z,92.70
2023-04-09T05:55:07.502Z,93.20
2023-04-09T05:57:45.523Z,93.50
2023-04-09T06:00:13.666Z,93.70
2023-04-09T06:02:48.456Z,94.00
2023-04-09T06:05:15.626Z,94.40
2023-04-09T06:07:42.620Z,94.40
2023-04-09T06:10:09.905Z,94.50
2023-04-09T06:12:36.953Z,94.40
2023-04-09T06:15:07.630Z,94.40
2023-04-09T06:17:34.637Z,94.10
2023-04-09T06:20:01.706Z,94.10
2023-04-09T06:22:28.734Z,94.20
2023-04-09T06:24:55.913Z,93.90
2023-04-09T06:27:22.956Z,93.70
2023-04-09T06:29:49.931Z,93.60
2023-04-09T06:32:17.201Z,93.60
2023-04-09T06:34:44.437Z,93.30
2023-04-09T06:37:11.578Z,93.30
2023-04-09T06:39:40.407Z,93.00
2023-04-09T06:42:09.502Z,92.60
2023-04-09T06:44:55.462Z,92.30
2023-04-09T06:47:22.419Z,92.10
2023-04-09T06:49:49.476Z,92.00
2023-04-09T06:52:16.853Z,92.20
2023-04-09T06:54:43.796Z,92.10
2023-04-09T06:57:14.062Z,91.50
2023-04-09T06:59:41.322Z,91.10
2023-04-09T07:02:09.190Z,91.10
2023-04-09T07:04:37.605Z,91.10
2023-04-09T07:07:05.230Z,90.70
2023-04-09T07:09:32.367Z,90.70
2023-04-09T07:11:59.422Z,90.90
2023-04-09T07:14:26.385Z,90.70
2023-04-09T07:16:53.322Z,90.30
2023-04-09T07:19:20.372Z,90.20
2023-04-09T07:21:47.352Z,89.50
2023-04-09T07:24:14.357Z,89.00
2023-04-09T07:26:41.593Z,88.70
2023-04-09T07:29:08.781Z,88.10
2023-04-09T07:31:36.285Z,87.70
2023-04-09T07:34:03.335Z,87.50
2023-04-09T07:36:31.892Z,86.60
2023-04-09T07:38:59.006Z,86.70
2023-04-09T07:41:26.133Z,86.40
2023-04-09T07:43:53.110Z,86.30
2023-04-09T07:46:22.015Z,86.00
2023-04-09T07:48:50.416Z,86.00
2023-04-09T07:51:18.241Z,85.30
2023-04-09T07:53:45.256Z,83.90
2023-04-09T07:56:12.425Z,83.90
2023-04-09T07:58:39.493Z,83.10
2023-04-09T08:01:06.573Z,82.40
2023-04-09T08:03:33.786Z,82.60
2023-04-09T08:06:01.442Z,82.60
2023-04-09T08:08:28.553Z,82.50
2023-04-09T08:10:55.723Z,81.80
2023-04-09T08:13:25.474Z,82.00
2023-04-09T08:15:52.588Z,81.50
2023-04-09T08:18:19.590Z,79.80
2023-04-09T08:20:46.831Z,79.60
2023-04-09T08:23:14.025Z,79.90
2023-04-09T08:25:41.124Z,78.80
2023-04-09T08:28:08.483Z,77.50
2023-04-09T08:30:35.717Z,78.50
2023-04-09T08:33:03.059Z,78.10
2023-04-09T08:35:33.537Z,76.80
2023-04-09T08:38:00.511Z,75.70
2023-04-09T08:40:27.591Z,74.70
2023-04-09T08:42:57.037Z,73.90
2023-04-09T08:45:24.438Z,73.70
2023-04-09T08:47:52.434Z,72.50
2023-04-09T08:50:20.259Z,71.10
2023-04-09T08:52:48.666Z,70.60
2023-04-09T08:55:15.866Z,69.20
2023-04-09T08:57:43.374Z,68.70
2023-04-09T09:00:10.963Z,68.90
2023-04-09T09:02:39.491Z,67.50
2023-04-09T09:05:07.171Z,67.30
2023-04-09T09:07:34.436Z,64.40
2023-04-09T09:10:05.192Z,63.30
2023-04-09T09:12:32.123Z,65.10
2023-04-09T09:14:59.253Z,64.60
2023-04-09T09:17:26.777Z,64.60
2023-04-09T09:19:54.082Z,64.70
2023-04-09T09:22:21.694Z,63.70
2023-04-09T09:24:50.395Z,63.60
2023-04-09T09:27:39.666Z,64.00
2023-04-09T09:30:08.857Z,63.00
2023-04-09T09:32:36.389Z,62.90
2023-04-09T09:35:07.508Z,59.40
2023-04-09T09:37:34.709Z,58.30
2023-04-09T09:40:02.093Z,58.90
2023-04-09T09:42:29.065Z,59.40
2023-04-09T09:44:56.628Z,58.40
2023-04-09T09:47:25.357Z,56.50
2023-04-09T09:49:52.746Z,57.50
2023-04-09T09:52:27.193Z,57.00
2023-04-09T09:54:56.001Z,56.80
2023-04-09T09:57:25.360Z,54.30
2023-04-09T10:00:06.463Z,56.70
2023-04-09T10:02:54.080Z,57.80
2023-04-09T10:05:25.155Z,53.90
2023-04-09T10:07:57.446Z,52.70
2023-04-09T10:10:25.892Z,52.20
2023-04-09T10:12:53.056Z,53.10
2023-04-09T10:15:20.596Z,52.20
2023-04-09T10:17:48.159Z,53.20
2023-04-09T10:20:29.168Z,53.00
2023-04-09T10:22:57.746Z,52.80
2023-04-09T10:25:24.844Z,51.30
2023-04-09T10:28:02.425Z,53.30
2023-04-09T10:30:33.998Z,52.30
2023-04-09T10:33:12.186Z,52.10
2023-04-09T10:35:39.417Z,52.20
2023-04-09T10:38:10.779Z,51.20
2023-04-09T10:40:56.058Z,51.10
2023-04-09T10:43:23.810Z,50.40
2023-04-09T10:45:53.712Z,49.50
2023-04-09T10:48:22.151Z,50.30
2023-04-09T10:50:54.138Z,50.80
2023-04-09T10:53:28.010Z,51.10
2023-04-09T10:55:56.708Z,50.30
2023-04-09T10:58:23.696Z,51.30
2023-04-09T11:00:51.622Z,50.30
2023-04-09T11:03:30.708Z,50.50
2023-04-09T11:06:03.252Z,51.90
2023-04-09T11:08:32.103Z,52.10
2023-04-09T11:11:01.574Z,50.50
2023-04-09T11:13:29.733Z,50.90
2023-04-09T11:15:57.396Z,52.00
2023-04-09T11:18:26.471Z,50.00
2023-04-09T11:21:00.995Z,50.30
2023-04-09T11:23:28.432Z,51.30
2023-04-09T11:25:56.524Z,50.30
2023-04-09T11:28:24.505Z,50.30
2023-04-09T11:30:52.465Z,52.60
2023-04-09T11:33:20.453Z,51.70
2023-04-09T11:35:48.663Z,52.30
2023-04-09T11:38:16.059Z,50.70
2023-04-09T11:40:49.061Z,52.40
2023-04-09T11:43:16.971Z,50.40
2023-04-09T11:45:48.833Z,51.50
2023-04-09T11:48:23.390Z,50.90
2023-04-09T11:50:51.040Z,51.60
2023-04-09T11:53:45.875Z,50.50
2023-04-09T11:56:13.286Z,50.40
2023-04-09T11:58:47.421Z,49.90
2023-04-09T12:01:15.701Z,50.50
2023-04-09T12:03:43.017Z,50.80
2023-04-09T12:06:10.124Z,49.80
2023-04-09T12:08:37.667Z,51.50
2023-04-09T12:11:16.268Z,51.40
2023-04-09T12:13:44.806Z,51.50
2023-04-09T12:16:13.675Z,51.40
2023-04-09T12:18:41.141Z,51.90
2023-04-09T12:21:08.271Z,51.10
2023-04-09T12:23:35.359Z,52.00
2023-04-09T12:26:02.568Z,52.50
2023-04-09T12:28:29.724Z,51.00
2023-04-09T12:30:58.410Z,51.30
2023-04-09T12:33:25.442Z,51.30
2023-04-09T12:35:52.489Z,51.10
2023-04-09T12:38:19.429Z,52.40
2023-04-09T12:40:47.000Z,50.10
2023-04-09T12:43:53.610Z,50.20
2023-04-09T12:46:20.766Z,49.80
2023-04-09T12:48:47.862Z,50.00
2023-04-09T12:51:42.080Z,49.60
2023-04-09T12:54:08.975Z,50.60
2023-04-09T12:56:36.007Z,50.20
2023-04-09T12:59:04.103Z,48.50
2023-04-09T13:01:31.235Z,49.40
2023-04-09T13:03:58.781Z,50.00
2023-04-09T13:06:26.231Z,50.40
2023-04-09T13:08:59.133Z,51.10
2023-04-09T13:11:26.490Z,51.60
2023-04-09T13:13:53.995Z,51.70
2023-04-09T13:16:21.159Z,52.60
2023-04-09T13:18:48.272Z,51.50
2023-04-09T13:21:18.826Z,50.10
2023-04-09T13:23:45.794Z,49.90
2023-04-09T13:26:12.821Z,51.10
2023-04-09T13:28:39.748Z,50.80
2023-04-09T13:31:06.843Z,50.90
2023-04-09T13:33:34.189Z,49.90
2023-04-09T13:36:01.559Z,49.00
2023-04-09T13:38:28.657Z,50.60
2023-04-09T13:41:28.350Z,50.40
2023-04-09T13:43:55.829Z,49.80
2023-04-09T13:47:18.581Z,49.50
2023-04-09T13:50:47.758Z,48.30
2023-04-09T13:53:14.875Z,49.60
2023-04-09T13:55:41.854Z,47.80
2023-04-09T13:58:08.790Z,48.90
2023-04-09T14:00:39.826Z,48.90
2023-04-09T14:03:07.012Z,49.20
2023-04-09T14:05:34.041Z,50.20
2023-04-09T14:08:01.259Z,49.90
2023-04-09T14:10:28.177Z,48.80
2023-04-09T14:12:59.400Z,47.60
2023-04-09T14:15:26.850Z,46.20
2023-04-09T14:17:53.916Z,46.80
2023-04-09T14:20:21.470Z,46.70
2023-04-09T14:22:53.614Z,47.50
2023-04-09T14:25:24.846Z,48.20
2023-04-09T14:27:52.286Z,47.90
2023-04-09T14:30:19.327Z,48.60
2023-04-09T14:32:46.516Z,48.40
2023-04-09T14:35:13.581Z,48.80
2023-04-09T14:37:41.120Z,48.40
2023-04-09T14:40:09.264Z,48.30
2023-04-09T14:42:37.350Z,48.90
2023-04-09T14:45:04.636Z,48.90
2023-04-09T14:47:31.724Z,49.60
2023-04-09T14:49:58.664Z,48.70
2023-04-09T14:52:26.043Z,48.30
2023-04-09T14:54:53.053Z,48.10
2023-04-09T14:57:20.040Z,48.00
2023-04-09T14:59:47.049Z,48.60
2023-04-09T15:02:14.221Z,48.70
2023-04-09T15:04:41.523Z,47.60
2023-04-09T15:07:08.533Z,49.10
2023-04-09T15:09:35.824Z,49.10
2023-04-09T15:12:03.434Z,49.10
2023-04-09T15:14:31.374Z,48.80
2023-04-09T15:16:58.377Z,48.80
2023-04-09T15:19:25.415Z,49.10
2023-04-09T15:21:52.579Z,48.70
2023-04-09T15:24:19.585Z,48.60
2023-04-09T15:26:46.616Z,48.00
2023-04-09T15:29:13.634Z,48.50
2023-04-09T15:31:41.607Z,49.20
2023-04-09T15:34:08.798Z,50.20
2023-04-09T15:36:36.002Z,49.00
2023-04-09T15:39:04.603Z,49.20
2023-04-09T15:41:32.368Z,50.40
2023-04-09T15:43:59.482Z,50.10
2023-04-09T15:46:26.356Z,49.20
2023-04-09T15:48:53.652Z,48.50
2023-04-09T15:51:21.156Z,47.50
2023-04-09T15:53:48.165Z,48.70
2023-04-09T15:56:17.829Z,47.50
2023-04-09T15:58:44.830Z,48.90
2023-04-09T16:01:38.195Z,49.30
2023-04-09T16:04:05.473Z,49.70
2023-04-09T16:06:32.702Z,48.40
2023-04-09T16:08:59.723Z,48.10
2023-04-09T16:12:02.930Z,48.00
2023-04-09T16:14:30.245Z,48.40
2023-04-09T16:16:57.178Z,49.20
2023-04-09T16:19:25.337Z,48.60
2023-04-09T16:21:53.326Z,49.30
2023-04-09T16:24:58.460Z,48.50
2023-04-09T16:27:25.495Z,50.10
2023-04-09T16:29:52.540Z,50.30
2023-04-09T16:32:19.455Z,51.00
2023-04-09T16:34:47.459Z,51.00
2023-04-09T16:37:14.536Z,51.00
2023-04-09T16:39:42.080Z,51.60
2023-04-09T16:42:09.628Z,51.60
2023-04-09T16:44:36.768Z,51.30
2023-04-09T16:47:05.384Z,51.40
2023-04-09T16:49:32.385Z,52.30
2023-04-09T16:51:59.435Z,52.90
2023-04-09T16:54:26.587Z,53.00
2023-04-09T16:56:53.654Z,52.60
2023-04-09T16:59:27.771Z,53.40
2023-04-09T17:01:54.825Z,54.00
2023-04-09T17:04:22.003Z,54.30
2023-04-09T17:06:48.988Z,54.10
2023-04-09T17:09:16.614Z,55.20
2023-04-09T17:11:44.668Z,55.20
2023-04-09T17:14:11.680Z,55.60
2023-04-09T17:16:38.717Z,55.50
2023-04-09T17:19:05.869Z,54.90
2023-04-09T17:21:32.886Z,55.90
2023-04-09T17:24:01.917Z,56.90
2023-04-09T17:26:29.454Z,57.20
2023-04-09T17:28:56.364Z,57.40
2023-04-09T17:31:24.480Z,58.10
2023-04-09T17:33:52.389Z,58.30
2023-04-09T17:36:21.260Z,58.40
2023-04-09T17:38:50.126Z,58.70
2023-04-09T17:41:17.119Z,58.90
2023-04-09T17:43:44.018Z,59.10
2023-04-09T17:46:36.848Z,59.10
2023-04-09T17:49:03.974Z,59.20
2023-04-09T17:51:30.865Z,59.40
2023-04-09T17:53:57.841Z,59.70
2023-04-09T17:56:25.193Z,59.80
2023-04-09T17:58:52.269Z,60.00
2023-04-09T18:01:19.482Z,60.30
2023-04-09T18:03:47.082Z,60.20
2023-04-09T18:06:15.676Z,60.60
2023-04-09T18:08:43.454Z,60.90
2023-04-09T18:11:13.273Z,61.00
2023-04-09T18:13:40.899Z,61.40
2023-04-09T18:16:12.309Z,61.70
2023-04-09T18:18:39.617Z,62.20
2023-04-09T18:21:06.926Z,62.60
2023-04-09T18:23:33.939Z,62.80
2023-04-09T18:26:00.868Z,63.30
2023-04-09T18:28:28.148Z,63.20
2023-04-09T18:30:55.137Z,63.40
2023-04-09T18:33:23.105Z,63.50
2023-04-09T18:35:50.052Z,63.70
2023-04-09T18:38:17.881Z,63.90
2023-04-09T18:40:45.038Z,64.10
2023-04-09T18:43:12.570Z,64.30
2023-04-09T18:45:39.799Z,64.40
2023-04-09T18:48:08.188Z,64.90
2023-04-09T18:50:35.794Z,65.10
2023-04-09T18:53:03.760Z,65.30
2023-04-09T18:55:31.941Z,65.30
2023-04-09T18:57:58.901Z,65.70
2023-04-09T19:00:25.968Z,66.00
2023-04-09T19:02:53.806Z,66.50
2023-04-09T19:05:21.058Z,66.70
2023-04-09T19:07:48.113Z,66.90
2023-04-09T19:11:06.340Z,67.20
2023-04-09T19:13:33.773Z,67.40
2023-04-09T19:16:00.873Z,67.80
2023-04-09T19:18:27.858Z,67.80
2023-04-09T19:20:54.922Z,68.00
2023-04-09T19:23:21.908Z,68.10
2023-04-09T19:25:55.861Z,68.30
2023-04-09T19:28:23.325Z,68.50
2023-04-09T19:30:52.584Z,68.70
2023-04-09T19:33:24.663Z,69.00
2023-04-09T19:35:55.483Z,69.10
2023-04-09T19:38:22.885Z,69.20
2023-04-09T19:40:49.966Z,69.40
2023-04-09T19:43:17.026Z,69.40
2023-04-09T19:45:44.483Z,69.40
2023-04-09T19:48:12.700Z,69.40
2023-04-09T19:50:46.709Z,69.30
2023-04-09T19:53:13.705Z,69.40
2023-04-09T19:55:41.771Z,69.50
2023-04-09T19:58:08.790Z,69.70
2023-04-09T20:00:36.053Z,69.70
2023-04-09T20:03:03.519Z,70.00
2023-04-09T20:05:30.668Z,70.20
2023-04-09T20:07:57.689Z,70.50
2023-04-09T20:10:24.780Z,70.50
2023-04-09T20:12:52.063Z,70.90
2023-04-09T20:15:49.991Z,71.20
2023-04-09T20:18:17.002Z,71.40
2023-04-09T20:20:44.054Z,71.40
2023-04-09T20:23:11.025Z,71.40
2023-04-09T20:25:38.201Z,71.40
2023-04-09T20:28:05.252Z,71.40
2023-04-09T20:30:32.627Z,71.40
2023-04-09T20:32:59.805Z,71.10
2023-04-09T20:35:27.452Z,70.80
2023-04-09T20:37:55.318Z,70.90
2023-04-09T20:40:22.635Z,71.10
2023-04-09T20:42:49.789Z,71.30
2023-04-09T20:45:16.980Z,71.40
2023-04-09T20:47:44.069Z,71.60
2023-04-09T20:50:11.445Z,71.80
2023-04-09T20:52:38.838Z,72.00
2023-04-09T20:55:06.551Z,72.20
2023-04-09T20:57:33.872Z,72.40
2023-04-09T21:00:02.136Z,72.60
2023-04-09T21:02:29.435Z,72.50
2023-04-09T21:05:00.039Z,72.70
2023-04-09T21:07:30.446Z,72.90
2023-04-09T21:09:57.451Z,72.80
2023-04-09T21:12:24.503Z,72.90
2023-04-09T21:14:51.537Z,73.10
2023-04-09T21:17:21.037Z,73.30
2023-04-09T21:19:49.419Z,73.30
2023-04-09T21:22:16.474Z,73.50
2023-04-09T21:24:43.479Z,73.70
2023-04-09T21:27:10.733Z,73.80
2023-04-09T21:29:37.756Z,74.10
2023-04-09T21:32:04.872Z,74.20
2023-04-09T21:34:31.900Z,74.50
2023-04-09T21:36:59.157Z,74.70
2023-04-09T21:39:26.308Z,75.00
2023-04-09T21:41:53.284Z,75.00
2023-04-09T21:44:20.699Z,75.10
2023-04-09T21:46:47.878Z,75.40
2023-04-09T21:49:14.888Z,75.50
2023-04-09T21:51:42.078Z,75.60
2023-04-09T21:54:09.880Z,75.80
2023-04-09T21:56:37.545Z,76.20
2023-04-09T21:59:05.516Z,76.50
2023-04-09T22:01:34.954Z,76.70
2023-04-09T22:04:02.363Z,76.90
2023-04-09T22:06:29.764Z,77.20
2023-04-09T22:08:58.232Z,77.60
2023-04-09T22:11:27.881Z,77.90
2023-04-09T22:13:58.418Z,78.30
2023-04-09T22:16:26.052Z,78.50
2023-04-09T22:18:54.206Z,78.90
2023-04-09T22:21:21.690Z,79.40
2023-04-09T22:23:48.743Z,79.80
2023-04-09T22:26:15.885Z,80.30
2023-04-09T22:28:42.912Z,80.60
2023-04-09T22:31:10.011Z,80.60
2023-04-09T22:33:37.126Z,80.60
2023-04-09T22:36:04.329Z,80.50
2023-04-09T22:38:31.436Z,80.30
2023-04-09T22:40:58.423Z,80.20
2023-04-09T22:43:25.536Z,80.20
2023-04-09T22:45:56.122Z,80.40
2023-04-09T22:48:23.664Z,80.50
2023-04-09T22:50:52.014Z,80.40
2023-04-09T22:53:19.560Z,80.30
2023-04-09T22:55:48.842Z,80.30
2023-04-09T22:58:15.906Z,80.60
2023-04-09T23:00:44.201Z,80.90
2023-04-09T23:03:11.360Z,80.90
2023-04-09T23:05:38.692Z,81.00
2023-04-09T23:08:07.753Z,80.90
2023-04-09T23:10:35.206Z,80.80
2023-04-09T23:13:02.579Z,80.70
2023-04-09T23:15:29.755Z,80.70
2023-04-09T23:17:57.065Z,80.80
2023-04-09T23:20:24.237Z,80.90
2023-04-09T23:22:51.241Z,81.00
2023-04-09T23:25:18.588Z,81.10
2023-04-09T23:27:46.715Z,81.10
2023-04-09T23:30:17.188Z,81.30
2023-04-09T23:32:45.360Z,81.30
2023-04-09T23:35:12.713Z,81.30
2023-04-09T23:37:41.263Z,81.40
2023-04-09T23:40:09.098Z,81.60
2023-04-09T23:42:36.149Z,81.70
2023-04-09T23:45:06.603Z,81.80
2023-04-09T23:47:35.693Z,81.70
2023-04-09T23:50:07.652Z,82.00
2023-04-09T23:52:35.952Z,82.40
2023-04-09T23:55:03.895Z,82.60
2023-04-09T23:57:30.999Z,82.70
2023-04-09T23:59:58.123Z,82.80
